Flugplatz Hannover

Bericht für EDDV

vom 17.02. um 09:20 UTC

Wind 5 kt aus 150°

Sichtweite 10 km oder mehr

gute Sicht, keine Wolken < 5000 ft, keine CB, keine Wettererscheinungen (CAVOK)

Temperatur 9.0°C

Taupunkt 2.0°C

Luftfeuchtigkeit 61%

Luftdruck 1023 hPa

keine wesentliche Wetteränderung innerhalb den nächsten 2 Stunden zu erwarten

EDDV 170920Z 15005KT 110V210 CAVOK 09/02 Q1023 NOSIG

Prognose für EDDV

vom 17.02. um 05:00 UTC

Zwischen 06:00 UTC und 06:00 UTC

Wind 6 kt aus 150°

Sichtweite 10 km oder mehr

keine signifikanten Wettererscheinungen

keine Wolken

TAF EDDV 170500Z 1706/1806 15006KT CAVOK
Impressum